Time;durP1;ratioP1;P1;durP2;ratioP2;P2;SDS_P1;SDS_P2;PMS_P1;PMS_P2;Temp;Humidity;BMP_temperature;BMP_pressure;BME280_temperature;BME280_humidity;BME280_pressure;Samples;Min_cycle;Max_cycle;Signal;HPM_P1;HPM_P2
2022/10/21 00:02:04;;;;;;;;;;;;;;;3.87;100.00;99816.55;100766;1337;22678;-31
2022/10/21 00:04:31;;;;;;;17.00;10.00;;;;;;;3.86;100.00;99818.29;100733;1337;23358;-35
2022/10/21 00:06:56;;;;;;;26.20;10.60;;;;;;;3.84;100.00;99816.35;100411;1338;666182;-35
2022/10/21 00:09:22;;;;;;;22.40;11.00;;;;;;;3.81;100.00;99812.34;100707;1339;24414;-37
2022/10/21 00:11:47;;;;;;;27.90;9.70;;;;;;;3.81;100.00;99804.93;100910;1331;24380;-31
2022/10/21 00:14:13;;;;;;;14.70;9.00;;;;;;;3.83;100.00;99798.74;100834;1337;24297;-35
2022/10/21 00:16:38;;;;;;;25.20;10.60;;;;;;;3.85;100.00;99801.14;100904;1337;22895;-31
2022/10/21 00:19:04;;;;;;;28.00;10.60;;;;;;;3.88;100.00;99804.70;100732;1337;24495;-31
2022/10/21 00:21:30;;;;;;;11.60;6.90;;;;;;;3.89;100.00;99807.81;100729;1338;22935;-31
2022/10/21 00:23:55;;;;;;;17.60;8.40;;;;;;;3.89;100.00;99806.45;100766;1338;22751;-31
2022/10/21 00:26:21;;;;;;;19.30;9.40;;;;;;;3.88;100.00;99800.91;100752;1337;22840;-34
2022/10/21 00:28:47;;;;;;;18.70;8.70;;;;;;;3.89;100.00;99796.90;100798;1338;23187;-35
2022/10/21 00:31:13;;;;;;;11.40;7.00;;;;;;;3.93;100.00;99795.83;100876;1338;23001;-34
2022/10/21 00:33:39;;;;;;;15.40;7.10;;;;;;;3.99;100.00;99789.92;100908;1330;24313;-31
2022/10/21 00:36:06;;;;;;;15.70;7.00;;;;;;;4.00;100.00;99786.47;100712;1337;23262;-31
2022/10/21 00:38:33;;;;;;;12.60;8.40;;;;;;;4.01;100.00;99785.69;100964;1330;25688;-31
2022/10/21 00:40:58;;;;;;;16.20;9.50;;;;;;;4.05;100.00;99779.80;100760;1314;24996;-34
2022/10/21 00:43:25;;;;;;;14.70;6.80;;;;;;;4.09;100.00;99775.86;100898;1338;23096;-31
2022/10/21 00:45:53;;;;;;;12.30;6.80;;;;;;;4.14;100.00;99774.90;100719;1339;24379;-31
2022/10/21 00:48:22;;;;;;;11.80;7.20;;;;;;;4.14;100.00;99772.04;100817;1331;24376;-31
2022/10/21 00:50:49;;;;;;;16.60;8.90;;;;;;;4.13;100.00;99770.73;100853;1339;24288;-31
2022/10/21 00:53:15;;;;;;;15.20;6.00;;;;;;;4.12;100.00;99767.73;100749;1338;23109;-37
2022/10/21 00:55:45;;;;;;;13.20;7.00;;;;;;;4.16;100.00;99770.08;100735;1321;22762;-32
2022/10/21 00:58:10;;;;;;;12.00;7.30;;;;;;;4.17;100.00;99762.31;100839;1339;24223;-36
2022/10/21 01:00:36;;;;;;;9.20;5.50;;;;;;;4.17;100.00;99757.17;100686;1339;24237;-36
2022/10/21 01:03:02;;;;;;;14.50;7.00;;;;;;;4.18;100.00;99749.48;100817;1331;24375;-36
2022/10/21 01:05:28;;;;;;;17.10;8.00;;;;;;;4.23;100.00;99743.57;100824;1337;24245;-36
2022/10/21 01:07:53;;;;;;;8.70;5.40;;;;;;;4.31;100.00;99741.21;100789;1331;24610;-36
2022/10/21 01:10:19;;;;;;;15.00;8.10;;;;;;;4.36;100.00;99737.29;100762;1339;23210;-36
2022/10/21 01:12:51;;;;;;;17.90;9.00;;;;;;;4.40;100.00;99729.85;100746;1331;22884;-36
2022/10/21 01:15:22;;;;;;;12.40;8.10;;;;;;;4.43;100.00;99726.87;100737;1330;23093;-33
2022/10/21 01:17:53;;;;;;;18.50;8.30;;;;;;;4.47;100.00;99726.35;100672;1332;22741;-33
2022/10/21 01:20:25;;;;;;;12.50;7.00;;;;;;;4.52;100.00;99721.98;100656;1331;22757;-34
2022/10/21 01:23:00;;;;;;;11.60;6.90;;;;;;;4.55;100.00;99721.47;100699;1338;22646;-34
2022/10/21 01:25:35;;;;;;;13.60;6.60;;;;;;;4.55;100.00;99714.92;100853;1331;22487;-34
2022/10/21 01:28:10;;;;;;;19.10;8.30;;;;;;;4.54;100.00;99718.57;100769;1339;25351;-36
2022/10/21 01:30:36;;;;;;;23.50;7.20;;;;;;;4.50;100.00;99722.15;100685;1337;23356;-30
2022/10/21 01:33:06;;;;;;;16.70;7.90;;;;;;;4.50;100.00;99717.89;100828;1337;23074;-30
2022/10/21 01:35:37;;;;;;;14.50;6.60;;;;;;;4.47;100.00;99719.39;100857;1339;22510;-32
2022/10/21 01:38:07;;;;;;;10.60;6.20;;;;;;;4.43;100.00;99721.55;100832;1338;22911;-35
2022/10/21 01:40:39;;;;;;;13.50;7.60;;;;;;;4.39;100.00;99724.23;100827;1339;24864;-35
2022/10/21 01:43:13;;;;;;;13.60;6.30;;;;;;;4.42;100.00;99722.68;100894;1334;25454;-31
2022/10/21 01:45:42;;;;;;;9.50;5.30;;;;;;;4.43;100.00;99719.24;100793;1338;23090;-36
2022/10/21 01:48:10;;;;;;;13.10;6.80;;;;;;;4.45;100.00;99714.23;100805;1321;22883;-34
2022/10/21 01:50:39;;;;;;;9.90;6.60;;;;;;;4.48;100.00;99713.09;100859;1337;24282;-34
2022/10/21 01:53:12;;;;;;;8.80;6.70;;;;;;;4.47;100.00;99715.83;100828;1329;23233;-34
2022/10/21 01:55:38;;;;;;;11.70;7.50;;;;;;;4.47;100.00;99711.62;100716;1337;22841;-34
2022/10/21 01:58:07;;;;;;;10.40;5.80;;;;;;;4.49;100.00;99706.81;100826;1338;23109;-32
2022/10/21 02:00:33;;;;;;;13.70;8.00;;;;;;;4.51;100.00;99702.55;100770;1331;22800;-30
2022/10/21 02:02:59;;;;;;;11.50;6.10;;;;;;;4.51;100.00;99704.45;100747;1337;25778;-31
2022/10/21 02:05:26;;;;;;;;;;;;;;;4.51;100.00;99706.64;100884;1326;22737;-31
2022/10/21 02:07:52;;;;;;;15.50;7.90;;;;;;;4.50;100.00;99704.94;100765;1331;22806;-36
2022/10/21 02:10:17;;;;;;;17.60;8.10;;;;;;;4.50;100.00;99695.39;100805;1338;23123;-36
2022/10/21 02:12:44;;;;;;;5.90;2.90;;;;;;;4.49;100.00;99685.52;100820;1338;22721;-33
2022/10/21 02:15:10;;;;;;;10.70;6.80;;;;;;;4.47;100.00;99685.38;100733;1337;23053;-32
2022/10/21 02:17:37;;;;;;;12.20;6.00;;;;;;;4.45;100.00;99686.95;100764;1336;22884;-30
2022/10/21 02:20:04;;;;;;;12.40;6.20;;;;;;;4.48;100.00;99684.40;100876;1321;22810;-35
2022/10/21 02:22:30;;;;;;;7.40;4.00;;;;;;;4.52;100.00;99682.56;100758;1339;23890;-31
2022/10/21 02:24:58;;;;;;;11.50;7.10;;;;;;;4.55;100.00;99679.64;100703;1337;23323;-36
2022/10/21 02:27:24;;;;;;;8.00;5.40;;;;;;;4.58;100.00;99672.40;100900;1337;22730;-30
2022/10/21 02:29:54;;;;;;;8.00;5.20;;;;;;;4.70;100.00;99666.61;100741;1339;22787;-37
2022/10/21 02:32:28;;;;;;;9.80;6.40;;;;;;;4.80;100.00;99664.91;100807;1331;22924;-35
2022/10/21 02:34:53;;;;;;;;;;;;;;;4.86;100.00;99666.23;100900;1337;22480;-35
2022/10/21 02:37:19;;;;;;;9.50;5.70;;;;;;;4.90;100.00;99665.98;100814;1337;24353;-35
2022/10/21 02:39:54;;;;;;;5.40;4.30;;;;;;;4.97;100.00;99665.09;100758;1337;23568;-32
2022/10/21 02:42:22;;;;;;;14.40;6.70;;;;;;;5.05;100.00;99657.96;100859;1339;24436;-32
2022/10/21 02:44:48;;;;;;;7.80;4.70;;;;;;;5.10;100.00;99662.58;100835;1332;22869;-35
2022/10/21 02:47:15;;;;;;;11.40;6.00;;;;;;;5.12;100.00;99663.25;100684;1338;22975;-35
2022/10/21 02:49:43;;;;;;;9.00;4.60;;;;;;;5.13;100.00;99664.75;100831;1337;22995;-31
2022/10/21 02:52:08;;;;;;;11.60;6.40;;;;;;;5.11;100.00;99664.45;100867;1339;22642;-35
2022/10/21 02:54:34;;;;;;;8.70;6.30;;;;;;;5.10;100.00;99664.89;100848;1330;22515;-32
2022/10/21 02:57:00;;;;;;;15.00;6.10;;;;;;;5.10;100.00;99660.27;100842;1339;23224;-35
2022/10/21 02:59:25;;;;;;;11.60;5.90;;;;;;;5.09;100.00;99656.60;100741;1330;23084;-35
2022/10/21 03:01:52;;;;;;;12.10;6.20;;;;;;;5.13;100.00;99657.61;100790;1336;24356;-36
2022/10/21 03:04:17;;;;;;;9.00;5.50;;;;;;;5.13;100.00;99657.79;100842;1338;22874;-36
2022/10/21 03:06:43;;;;;;;7.50;4.30;;;;;;;5.14;100.00;99659.67;100789;1339;24495;-32
2022/10/21 03:09:09;;;;;;;10.10;6.90;;;;;;;5.14;100.00;99660.06;100775;1337;23120;-36
2022/10/21 03:11:35;;;;;;;12.20;6.20;;;;;;;5.12;100.00;99668.17;100764;1339;22742;-32
2022/10/21 03:14:00;;;;;;;5.30;4.40;;;;;;;5.10;100.00;99671.96;100795;1331;24471;-35
2022/10/21 03:16:26;;;;;;;13.40;6.30;;;;;;;5.12;100.00;99676.23;100747;1337;23084;-35
2022/10/21 03:18:52;;;;;;;13.60;5.10;;;;;;;5.17;100.00;99678.76;100820;1331;24680;-36
2022/10/21 03:21:17;;;;;;;3.10;2.70;;;;;;;5.22;100.00;99673.48;100790;1339;22665;-32
2022/10/21 03:23:43;;;;;;;;;;;;;;;5.24;100.00;99671.33;100877;1337;22858;-33
2022/10/21 03:26:08;;;;;;;13.30;5.70;;;;;;;5.22;100.00;99668.61;100679;1331;23367;-38
2022/10/21 03:28:34;;;;;;;7.00;4.50;;;;;;;5.22;100.00;99666.02;100732;1339;23114;-32
2022/10/21 03:30:59;;;;;;;12.10;6.60;;;;;;;5.19;100.00;99658.48;100764;1339;22515;-37
2022/10/21 03:33:25;;;;;;;14.40;5.80;;;;;;;5.21;100.00;99653.30;100818;1339;23230;-30
2022/10/21 03:35:51;;;;;;;10.80;5.40;;;;;;;5.23;100.00;99650.08;100725;1330;22715;-34
2022/10/21 03:38:16;;;;;;;10.40;6.10;;;;;;;5.19;100.00;99645.33;100798;1337;24375;-36
2022/10/21 03:40:42;;;;;;;14.70;6.60;;;;;;;5.17;100.00;99645.16;100789;1334;24308;-34
2022/10/21 03:43:07;;;;;;;17.70;5.60;;;;;;;5.15;100.00;99642.54;100726;1339;22610;-32
2022/10/21 03:45:33;;;;;;;7.30;4.90;;;;;;;5.16;100.00;99636.77;100867;1338;23212;-33
2022/10/21 03:47:59;;;;;;;3.40;2.70;;;;;;;5.14;100.00;99640.84;100771;1337;22870;-31
2022/10/21 03:50:24;;;;;;;8.20;4.20;;;;;;;5.14;100.00;99640.30;100725;1339;23109;-36
2022/10/21 03:52:50;;;;;;;18.50;5.20;;;;;;;5.16;100.00;99638.02;100836;1337;22968;-35
2022/10/21 03:55:19;;;;;;;8.20;4.40;;;;;;;5.19;100.00;99640.57;100762;1338;22461;-34
2022/10/21 03:57:46;;;;;;;12.70;5.10;;;;;;;5.21;100.00;99640.12;100841;1334;23151;-31
2022/10/21 04:00:12;;;;;;;10.40;5.80;;;;;;;5.26;100.00;99641.45;100707;1323;23162;-32
2022/10/21 04:02:39;;;;;;;8.00;5.70;;;;;;;5.31;100.00;99642.64;100839;1337;24438;-31
2022/10/21 04:05:05;;;;;;;5.80;4.10;;;;;;;5.34;100.00;99634.41;100842;1339;22751;-31
2022/10/21 04:07:31;;;;;;;7.00;3.70;;;;;;;5.37;100.00;99628.43;100709;1339;22513;-31
2022/10/21 04:09:56;;;;;;;11.70;6.10;;;;;;;5.39;100.00;99622.69;100775;1338;22745;-32
2022/10/21 04:12:22;;;;;;;23.20;4.50;;;;;;;5.42;100.00;99625.23;100655;1337;22745;-35
2022/10/21 04:14:47;;;;;;;6.60;4.00;;;;;;;5.45;100.00;99627.58;100717;1324;24279;-32
2022/10/21 04:17:13;;;;;;;14.40;4.50;;;;;;;5.49;100.00;99623.77;100729;1339;23238;-33
2022/10/21 04:19:38;;;;;;;6.90;4.00;;;;;;;5.52;99.96;99620.23;100809;1331;22874;-33
2022/10/21 04:22:04;;;;;;;5.00;3.00;;;;;;;5.57;99.98;99612.95;100820;1339;24379;-36
2022/10/21 04:24:30;;;;;;;7.80;5.10;;;;;;;5.61;99.99;99612.21;100709;1339;22762;-33
2022/10/21 04:26:55;;;;;;;10.00;4.70;;;;;;;5.66;99.71;99610.33;100739;1338;24296;-37
2022/10/21 04:29:21;;;;;;;9.80;5.30;;;;;;;5.70;99.48;99606.69;100827;1339;24678;-33
2022/10/21 04:31:47;;;;;;;6.10;3.70;;;;;;;5.76;99.17;99605.15;100758;1332;23240;-34
2022/10/21 04:34:12;;;;;;;17.00;4.90;;;;;;;5.78;99.12;99603.35;100672;1331;22996;-35
2022/10/21 04:36:38;;;;;;;6.90;3.80;;;;;;;5.81;99.16;99600.91;100756;1339;24308;-35
2022/10/21 04:39:03;;;;;;;12.60;5.10;;;;;;;5.86;98.66;99597.42;100850;1337;23004;-35
2022/10/21 04:41:29;;;;;;;5.40;4.40;;;;;;;5.90;98.28;99600.20;100846;1339;23106;-36
2022/10/21 04:43:55;;;;;;;6.10;4.80;;;;;;;5.94;98.07;99600.82;100849;1337;22507;-39
2022/10/21 04:46:20;;;;;;;5.90;4.30;;;;;;;5.95;97.63;99596.66;100721;1337;22506;-36
2022/10/21 04:48:46;;;;;;;12.90;4.30;;;;;;;5.98;97.43;99592.05;100840;1331;23309;-33
2022/10/21 04:51:12;;;;;;;15.40;5.00;;;;;;;5.97;97.07;99595.86;100763;1337;23210;-36
2022/10/21 04:53:37;;;;;;;9.30;5.90;;;;;;;5.96;97.17;99591.52;100828;1337;24247;-35
2022/10/21 04:56:03;;;;;;;6.20;2.70;;;;;;;5.92;97.38;99588.23;100837;1331;23096;-32
2022/10/21 04:58:29;;;;;;;8.10;5.20;;;;;;;5.91;97.26;99583.48;100762;1337;23120;-34
2022/10/21 05:00:54;;;;;;;4.30;3.20;;;;;;;5.94;97.12;99591.80;100797;1334;23109;-33
2022/10/21 05:03:20;;;;;;;11.00;4.90;;;;;;;5.90;97.01;99590.07;100711;1339;22478;-33
2022/10/21 05:05:49;;;;;;;5.30;3.30;;;;;;;5.85;97.55;99574.19;100769;1341;23087;-33
2022/10/21 05:08:15;;;;;;;9.20;4.30;;;;;;;5.81;97.67;99574.79;100760;1337;25656;-32
2022/10/21 05:10:40;;;;;;;6.00;3.60;;;;;;;5.81;97.76;99581.75;100802;1339;22871;-32
2022/10/21 05:13:06;;;;;;;5.20;3.80;;;;;;;5.79;97.92;99572.15;100849;1337;24838;-36
2022/10/21 05:15:32;;;;;;;10.20;4.80;;;;;;;5.79;98.14;99567.88;100745;1342;24432;-36
2022/10/21 05:17:57;;;;;;;6.20;3.50;;;;;;;5.80;98.26;99566.89;100770;1334;24383;-32
2022/10/21 05:20:23;;;;;;;7.00;4.60;;;;;;;5.80;98.43;99561.95;100869;1338;24353;-32
2022/10/21 05:22:50;;;;;;;10.80;3.40;;;;;;;5.84;98.50;99559.20;100781;1325;23119;-36
2022/10/21 05:25:16;;;;;;;5.00;3.70;;;;;;;5.87;98.44;99553.02;100877;1339;24490;-32
2022/10/21 05:27:42;;;;;;;4.50;3.20;;;;;;;5.89;98.46;99550.52;100691;1337;22828;-35
2022/10/21 05:30:09;;;;;;;5.20;3.40;;;;;;;5.92;98.48;99549.52;100754;1331;22491;-38
2022/10/21 05:32:34;;;;;;;7.40;5.60;;;;;;;5.91;98.70;99544.82;100876;1339;24485;-36
2022/10/21 05:35:00;;;;;;;11.70;6.00;;;;;;;5.93;98.81;99545.78;100783;1342;24288;-36
2022/10/21 05:37:26;;;;;;;7.30;4.80;;;;;;;5.98;98.61;99539.08;100934;1326;22778;-33
2022/10/21 05:39:52;;;;;;;6.60;3.70;;;;;;;6.02;98.46;99542.95;100856;1336;22504;-32
2022/10/21 05:42:17;;;;;;;11.80;5.10;;;;;;;6.06;98.21;99545.49;100780;1331;23050;-36
2022/10/21 05:44:43;;;;;;;6.20;2.50;;;;;;;6.08;98.19;99544.80;100762;1336;23106;-34
2022/10/21 05:47:09;;;;;;;9.10;3.10;;;;;;;6.13;97.95;99540.24;100772;1334;23193;-36
2022/10/21 05:49:35;;;;;;;7.20;5.00;;;;;;;6.17;97.70;99540.84;100851;1334;22561;-33
2022/10/21 05:52:01;;;;;;;4.40;3.40;;;;;;;6.20;97.46;99535.14;100907;1337;23007;-36
2022/10/21 05:54:27;;;;;;;7.70;3.80;;;;;;;6.24;97.54;99530.28;100767;1334;22747;-36
2022/10/21 05:56:55;;;;;;;4.70;3.80;;;;;;;6.27;97.37;99526.58;100851;1337;24490;-34
2022/10/21 05:59:21;;;;;;;7.20;4.50;;;;;;;6.29;97.12;99521.85;100815;1331;22934;-35
2022/10/21 06:01:47;;;;;;;5.90;3.90;;;;;;;6.30;97.35;99524.62;100796;1337;24451;-31
2022/10/21 06:04:13;;;;;;;10.40;4.40;;;;;;;6.36;97.37;99522.29;100752;1333;24386;-31
2022/10/21 06:06:39;;;;;;;6.20;3.00;;;;;;;6.37;96.82;99517.98;100868;1338;23244;-35
2022/10/21 06:09:05;;;;;;;3.50;2.50;;;;;;;6.43;96.86;99519.73;100870;1333;22755;-32
2022/10/21 06:11:30;;;;;;;7.20;3.70;;;;;;;6.46;96.52;99515.74;100708;1333;22757;-32
2022/10/21 06:13:56;;;;;;;5.30;4.00;;;;;;;6.56;96.38;99511.66;100771;1342;23090;-33
2022/10/21 06:16:22;;;;;;;11.90;4.90;;;;;;;6.63;96.27;99507.49;100775;1334;22622;-35
2022/10/21 06:18:47;;;;;;;10.80;4.70;;;;;;;6.70;96.02;99507.66;100710;1330;22884;-32
2022/10/21 06:21:13;;;;;;;7.20;4.60;;;;;;;6.76;95.59;99510.02;100859;1337;22744;-32
2022/10/21 06:23:40;;;;;;;6.40;3.30;;;;;;;6.82;95.49;99512.41;100764;1331;24363;-36
2022/10/21 06:26:08;;;;;;;7.90;4.50;;;;;;;6.88;95.29;99517.00;100804;1339;23226;-35
2022/10/21 06:28:36;;;;;;;11.30;3.30;;;;;;;7.00;95.38;99514.30;100816;1331;23227;-32
2022/10/21 06:31:01;;;;;;;6.00;3.00;;;;;;;7.11;95.09;99511.52;100772;1332;22758;-32
2022/10/21 06:33:27;;;;;;;5.70;3.70;;;;;;;7.22;94.61;99517.69;100745;1342;23218;-36
2022/10/21 06:35:54;;;;;;;5.00;3.00;;;;;;;7.33;94.33;99507.77;100884;1337;23017;-35
2022/10/21 06:38:19;;;;;;;10.60;4.60;;;;;;;7.44;93.30;99504.98;100749;1342;23225;-32
2022/10/21 06:40:47;;;;;;;6.20;3.40;;;;;;;7.50;92.92;99502.08;100811;1342;22532;-32
2022/10/21 06:43:13;;;;;;;5.20;4.00;;;;;;;7.58;92.43;99493.93;100786;1337;22847;-32
2022/10/21 06:45:39;;;;;;;9.80;3.70;;;;;;;7.60;91.75;99489.70;100721;1337;22745;-36
2022/10/21 06:48:04;;;;;;;7.70;4.00;;;;;;;7.66;92.16;99483.27;100660;1337;22867;-32
2022/10/21 06:50:30;;;;;;;6.20;3.40;;;;;;;7.76;91.14;99480.27;100848;1338;24339;-35
2022/10/21 06:52:56;;;;;;;5.90;3.50;;;;;;;7.78;90.74;99472.70;100765;1342;22744;-39
2022/10/21 06:55:21;;;;;;;19.60;4.10;;;;;;;7.82;90.20;99472.36;100717;1335;24897;-33
2022/10/21 06:57:47;;;;;;;5.80;3.90;;;;;;;7.86;90.28;99469.73;100896;1339;22614;-33
2022/10/21 07:00:13;;;;;;;4.70;3.60;;;;;;;7.92;90.06;99466.74;100775;1337;24481;-33
2022/10/21 07:02:40;;;;;;;10.40;2.60;;;;;;;8.01;89.45;99466.61;100779;1337;23053;-34
2022/10/21 07:05:06;;;;;;;4.60;3.10;;;;;;;8.01;89.45;99466.70;100699;1342;22868;-36
2022/10/21 07:07:31;;;;;;;5.80;4.00;;;;;;;8.07;89.33;99466.31;100825;1342;22596;-35
2022/10/21 07:09:57;;;;;;;3.60;3.00;;;;;;;8.13;88.00;99465.37;100824;1342;22757;-33
2022/10/21 07:12:24;;;;;;;6.70;3.50;;;;;;;8.19;88.38;99462.16;100792;1340;24864;-36
2022/10/21 07:14:49;;;;;;;5.30;3.10;;;;;;;8.29;87.73;99461.26;100750;1331;22745;-33
2022/10/21 07:17:16;;;;;;;4.20;2.50;;;;;;;8.31;87.79;99463.07;100870;1321;22921;-32
2022/10/21 07:19:41;;;;;;;5.70;2.70;;;;;;;8.38;87.27;99454.98;100850;1337;23179;-35
2022/10/21 07:22:07;;;;;;;3.30;2.60;;;;;;;8.44;86.50;99445.06;100782;1339;22744;-35
2022/10/21 07:24:34;;;;;;;8.30;3.00;;;;;;;8.45;86.16;99440.80;100798;1334;22497;-32
2022/10/21 07:27:00;;;;;;;12.00;1.60;;;;;;;8.61;85.34;99436.69;100801;1330;22996;-35
2022/10/21 07:29:25;;;;;;;7.30;3.20;;;;;;;8.61;85.30;99419.46;100811;1334;22758;-32
2022/10/21 07:31:52;;;;;;;3.80;2.50;;;;;;;8.65;85.58;99423.02;100735;1337;23108;-35
2022/10/21 07:34:17;;;;;;;4.90;3.20;;;;;;;8.73;85.00;99420.21;100721;1342;23220;-34
2022/10/21 07:36:46;;;;;;;6.80;2.30;;;;;;;8.85;84.05;99418.09;100887;1331;22883;-35
2022/10/21 07:39:13;;;;;;;3.30;2.70;;;;;;;8.86;84.44;99416.25;100756;1330;24360;-32
2022/10/21 07:43:57;;;;;;;3.80;2.30;;;;;;;9.00;83.31;99404.80;100138;1345;545391;-35
2022/10/21 07:46:23;;;;;;;14.50;2.40;;;;;;;9.03;82.75;99404.52;100384;1345;22752;-35
2022/10/21 07:48:49;;;;;;;4.10;2.70;;;;;;;9.14;81.91;99401.48;100349;1343;22826;-32
2022/10/21 07:51:16;;;;;;;4.80;2.70;;;;;;;9.15;80.86;99395.92;100224;1347;22870;-36
2022/10/21 07:53:42;;;;;;;6.20;3.20;;;;;;;9.16;80.96;99397.21;100352;1348;22761;-36
2022/10/21 07:56:11;;;;;;;4.90;2.80;;;;;;;9.21;81.15;99398.30;100198;1348;22662;-36
2022/10/21 07:58:37;;;;;;;4.60;2.80;;;;;;;9.22;81.27;99398.73;100289;1338;472950;-32
2022/10/21 08:01:03;;;;;;;2.70;1.60;;;;;;;9.19;81.45;99389.73;100296;1345;25337;-32
2022/10/21 08:03:32;;;;;;;4.60;2.70;;;;;;;9.26;81.05;99388.75;100462;1333;24258;-33
2022/10/21 08:06:00;;;;;;;3.20;1.90;;;;;;;9.31;79.60;99377.20;100531;1344;22525;-36
2022/10/21 08:08:26;;;;;;;4.50;2.10;;;;;;;9.26;79.80;99369.96;100347;1337;23117;-33
2022/10/21 08:10:52;;;;;;;2.30;1.90;;;;;;;9.34;79.24;99361.60;100489;1345;24478;-37
2022/10/21 08:13:18;;;;;;;6.60;2.80;;;;;;;9.35;79.05;99356.55;100320;1343;22875;-35
2022/10/21 08:15:45;;;;;;;4.80;2.60;;;;;;;9.44;78.34;99360.10;100521;1342;22763;-36
2022/10/21 08:18:10;;;;;;;5.60;2.10;;;;;;;9.47;78.93;99365.78;100541;1345;24289;-34
2022/10/21 08:20:39;;;;;;;3.10;1.20;;;;;;;9.56;78.66;99370.55;100389;1343;23028;-33
2022/10/21 08:23:05;;;;;;;4.00;3.10;;;;;;;9.57;78.21;99369.92;100564;1338;25240;-37
2022/10/21 08:25:33;;;;;;;3.70;2.00;;;;;;;9.61;76.92;99365.80;100449;1333;25441;-36
2022/10/21 08:27:58;;;;;;;;;;;;;;;9.55;77.75;99368.52;100516;1334;22759;-34
2022/10/21 08:30:28;;;;;;;2.90;2.20;;;;;;;9.65;77.87;99359.98;100439;1345;22769;-37
2022/10/21 08:32:55;;;;;;;3.10;1.90;;;;;;;9.63;77.85;99350.36;100395;1343;25893;-36
2022/10/21 08:35:21;;;;;;;4.20;2.90;;;;;;;9.64;77.01;99348.64;100324;1345;22529;-36
2022/10/21 08:37:48;;;;;;;6.40;2.80;;;;;;;9.65;77.93;99344.55;100404;1344;25379;-36
2022/10/21 08:40:14;;;;;;;4.50;2.50;;;;;;;9.70;77.92;99344.14;100399;1343;23220;-36
2022/10/21 08:42:41;;;;;;;4.00;2.30;;;;;;;9.73;77.60;99346.77;100366;1345;22530;-36
2022/10/21 08:45:33;;;;;;;4.30;2.60;;;;;;;9.75;77.63;99346.55;100399;1345;24568;-32
2022/10/21 08:48:00;;;;;;;6.20;2.10;;;;;;;9.89;77.30;99349.96;100350;1344;23097;-33
2022/10/21 08:50:29;;;;;;;4.60;2.00;;;;;;;9.99;76.78;99345.23;100431;1344;23245;-36
2022/10/21 08:52:58;;;;;;;6.80;3.10;;;;;;;10.02;75.83;99343.31;100445;1343;22611;-33
2022/10/21 08:55:24;;;;;;;2.90;1.90;;;;;;;10.06;75.44;99341.23;100389;1345;22995;-33
2022/10/21 08:57:52;;;;;;;;;;;;;;;10.09;75.45;99336.58;100445;1345;22634;-33
2022/10/21 09:00:20;;;;;;;8.40;2.10;;;;;;;10.15;75.03;99339.27;100427;1340;23120;-34
2022/10/21 09:03:10;;;;;;;5.70;2.20;;;;;;;10.24;74.79;99340.31;100454;1340;22897;-35
2022/10/21 09:05:42;;;;;;;2.70;2.50;;;;;;;10.28;75.85;99336.99;100318;1344;22927;-32
2022/10/21 09:08:13;;;;;;;3.60;1.80;;;;;;;10.36;76.10;99328.59;100424;1345;22589;-32
2022/10/21 09:10:48;;;;;;;2.50;1.90;;;;;;;10.38;75.75;99324.56;100439;1345;22527;-32
2022/10/21 09:13:19;;;;;;;5.80;3.20;;;;;;;10.44;75.28;99326.45;100481;1328;22754;-37
2022/10/21 09:15:53;;;;;;;3.60;2.20;;;;;;;10.55;74.42;99331.92;100279;1345;22583;-35
2022/10/21 09:18:42;;;;;;;6.50;2.40;;;;;;;10.64;72.75;99336.81;100455;1340;24230;-31
2022/10/21 09:21:14;;;;;;;10.70;2.90;;;;;;;10.61;73.15;99340.44;100360;1340;22806;-31
2022/10/21 09:23:46;;;;;;;7.40;2.20;;;;;;;10.73;72.66;99338.39;100483;1345;22494;-32
2022/10/21 09:26:21;;;;;;;13.30;2.50;;;;;;;10.80;71.76;99332.92;100524;1342;23860;-36
2022/10/21 09:28:47;;;;;;;2.90;1.90;;;;;;;10.89;69.95;99318.00;100430;1337;24245;-37
2022/10/21 09:31:17;;;;;;;4.90;2.80;;;;;;;10.87;70.73;99322.16;100509;1345;22990;-34
2022/10/21 09:33:44;;;;;;;3.00;2.60;;;;;;;10.88;70.85;99319.36;100434;1340;22759;-39
2022/10/21 09:36:13;;;;;;;3.00;2.20;;;;;;;10.94;70.56;99326.09;100512;1345;22878;-37
2022/10/21 09:38:42;;;;;;;10.60;2.90;;;;;;;11.00;71.13;99325.91;100507;1345;23148;-34
2022/10/21 09:41:14;;;;;;;5.20;2.30;;;;;;;11.10;70.91;99321.73;100866;1340;24065;-33
2022/10/21 09:43:40;;;;;;;4.80;2.40;;;;;;;11.18;70.34;99300.73;100420;1344;25381;-36
2022/10/21 09:46:05;;;;;;;2.60;1.90;;;;;;;11.17;70.16;99303.13;100529;1344;22524;-36
2022/10/21 09:48:34;;;;;;;3.40;2.30;;;;;;;11.27;69.13;99312.75;100370;1345;24404;-33
2022/10/21 09:51:04;;;;;;;2.00;1.50;;;;;;;11.35;68.05;99324.90;100441;1344;22961;-35
2022/10/21 09:53:32;;;;;;;3.80;2.70;;;;;;;11.38;67.56;99320.98;100517;1334;22754;-34
2022/10/21 09:56:01;;;;;;;2.30;1.60;;;;;;;11.38;67.47;99326.44;100433;1334;24223;-34
2022/10/21 09:58:29;;;;;;;2.90;2.50;;;;;;;11.40;67.68;99326.64;100558;1342;24013;-35
2022/10/21 10:00:55;;;;;;;6.80;1.90;;;;;;;11.43;67.42;99331.94;100522;1342;22713;-38
2022/10/21 10:03:27;;;;;;;6.00;2.20;;;;;;;11.43;66.84;99319.11;100534;1342;22783;-34
2022/10/21 10:05:53;;;;;;;5.00;2.80;;;;;;;11.44;67.58;99331.48;100491;1334;22518;-35
2022/10/21 10:08:28;;;;;;;4.30;2.20;;;;;;;11.56;66.67;99320.63;100528;1328;22512;-35
2022/10/21 10:11:00;;;;;;;2.80;1.90;;;;;;;11.49;66.82;99318.59;100470;1342;22518;-38
2022/10/21 10:13:27;;;;;;;4.60;1.80;;;;;;;11.44;67.07;99310.14;100521;1341;25310;-37
2022/10/21 10:15:53;;;;;;;3.50;2.20;;;;;;;11.44;67.34;99308.95;100603;1334;22751;-34
2022/10/21 10:18:20;;;;;;;3.30;2.00;;;;;;;11.50;67.25;99303.58;100459;1342;22799;-37
2022/10/21 10:20:56;;;;;;;6.30;1.90;;;;;;;11.46;68.06;99306.22;100606;1342;23234;-37
2022/10/21 10:23:22;;;;;;;3.80;2.20;;;;;;;11.49;68.52;99303.66;100386;1343;24292;-34
2022/10/21 10:25:49;;;;;;;1.70;1.30;;;;;;;11.54;67.71;99297.66;100475;1342;22793;-37
2022/10/21 10:28:19;;;;;;;3.40;2.00;;;;;;;11.60;67.41;99298.62;100454;1342;24288;-34
2022/10/21 10:30:47;;;;;;;4.50;2.00;;;;;;;11.65;67.27;99288.23;100437;1324;22990;-34
2022/10/21 10:33:17;;;;;;;3.20;1.60;;;;;;;11.69;68.14;99276.23;100613;1339;23297;-34
2022/10/21 10:35:46;;;;;;;8.20;2.10;;;;;;;11.90;67.09;99260.85;100524;1342;25620;-34
2022/10/21 10:38:18;;;;;;;9.50;1.60;;;;;;;12.09;66.88;99262.37;100525;1342;22871;-34
2022/10/21 10:40:43;;;;;;;5.60;2.20;;;;;;;12.43;66.95;99263.03;100501;1342;23123;-37
2022/10/21 10:43:14;;;;;;;4.40;1.90;;;;;;;12.79;65.30;99262.08;100528;1341;23240;-35
2022/10/21 10:45:46;;;;;;;2.60;2.10;;;;;;;12.98;65.41;99256.88;100510;1341;25345;-34
2022/10/21 10:48:19;;;;;;;8.50;1.90;;;;;;;13.18;63.58;99254.73;100479;1334;22503;-37
2022/10/21 10:50:45;;;;;;;5.50;2.20;;;;;;;13.40;62.14;99250.92;100494;1342;22510;-34
2022/10/21 10:53:20;;;;;;;5.30;2.70;;;;;;;13.83;61.64;99244.67;100375;1342;23223;-34
2022/10/21 10:55:45;;;;;;;6.30;1.90;;;;;;;14.45;59.67;99239.70;100506;1342;22514;-34
2022/10/21 10:58:11;;;;;;;12.70;1.90;;;;;;;14.96;58.09;99240.23;100444;1342;25056;-35
2022/10/21 11:00:39;;;;;;;3.60;2.10;;;;;;;15.20;55.07;99247.85;100434;1336;23228;-37
2022/10/21 11:03:06;;;;;;;3.20;2.00;;;;;;;15.40;54.15;99234.52;100548;1342;22637;-37
2022/10/21 11:05:35;;;;;;;12.10;2.00;;;;;;;15.52;52.90;99239.47;100637;1337;22765;-34
2022/10/21 11:08:24;;;;;;;2.00;1.40;;;;;;;15.51;53.64;99231.86;100538;1342;22748;-33
2022/10/21 11:10:53;;;;;;;5.10;1.50;;;;;;;15.81;53.02;99226.73;100597;1342;22616;-33
2022/10/21 11:13:20;;;;;;;1.90;1.50;;;;;;;15.72;51.57;99227.32;100573;1326;22500;-33
2022/10/21 11:15:52;;;;;;;5.90;1.90;;;;;;;15.22;52.54;99234.13;100527;1342;22895;-38
2022/10/21 11:18:23;;;;;;;4.60;2.20;;;;;;;14.85;53.51;99237.94;100572;1342;22764;-36
2022/10/21 11:20:55;;;;;;;3.40;2.00;;;;;;;14.68;53.90;99227.89;100579;1342;23346;-36
2022/10/21 11:23:26;;;;;;;5.60;1.80;;;;;;;14.54;54.64;99239.73;100528;1338;24881;-36
2022/10/21 11:25:55;;;;;;;6.50;2.90;;;;;;;14.62;54.67;99232.54;100539;1334;22508;-36
2022/10/21 11:28:26;;;;;;;9.40;2.10;;;;;;;14.68;54.96;99227.25;100535;1334;25306;-33
2022/10/21 11:30:59;;;;;;;4.10;2.90;;;;;;;14.98;54.47;99220.29;100443;1342;23916;-33